createdAt,value
2018-09-06T00:01:20.712Z,13.70
2018-09-06T00:03:49.301Z,13.70
2018-09-06T00:06:17.932Z,13.70
2018-09-06T00:08:46.587Z,13.70
2018-09-06T00:11:15.165Z,13.70
2018-09-06T00:13:43.741Z,13.60
2018-09-06T00:16:12.314Z,13.60
2018-09-06T00:18:40.884Z,13.60
2018-09-06T00:21:09.509Z,13.50
2018-09-06T00:23:38.106Z,13.50
2018-09-06T00:26:06.712Z,13.40
2018-09-06T00:28:35.280Z,13.30
2018-09-06T00:31:03.877Z,13.30
2018-09-06T00:33:32.498Z,13.20
2018-09-06T00:36:01.098Z,13.20
2018-09-06T00:38:29.719Z,13.10
2018-09-06T00:40:58.289Z,13.10
2018-09-06T00:43:26.849Z,13.10
2018-09-06T00:45:55.458Z,13.00
2018-09-06T00:48:24.092Z,13.00
2018-09-06T00:50:52.657Z,12.90
2018-09-06T00:53:24.107Z,13.00
2018-09-06T00:55:52.686Z,12.90
2018-09-06T00:58:21.257Z,12.90
2018-09-06T01:00:49.810Z,12.90
2018-09-06T01:03:18.396Z,12.90
2018-09-06T01:05:46.927Z,12.90
2018-09-06T01:08:15.494Z,12.80
2018-09-06T01:10:44.066Z,12.90
2018-09-06T01:13:12.605Z,12.80
2018-09-06T01:15:41.150Z,12.80
2018-09-06T01:18:09.761Z,12.80
2018-09-06T01:20:38.357Z,12.80
2018-09-06T01:23:07.046Z,12.70
2018-09-06T01:25:40.968Z,12.70
2018-09-06T01:28:09.547Z,12.70
2018-09-06T01:30:38.119Z,12.60
2018-09-06T01:33:06.701Z,12.60
2018-09-06T01:35:35.268Z,12.50
2018-09-06T01:38:03.817Z,12.50
2018-09-06T01:40:32.394Z,12.60
2018-09-06T01:43:00.987Z,12.60
2018-09-06T01:45:29.572Z,12.60
2018-09-06T01:47:58.183Z,12.60
2018-09-06T01:50:26.720Z,12.50
2018-09-06T01:52:55.325Z,12.50
2018-09-06T01:55:23.893Z,12.50
2018-09-06T01:57:52.450Z,12.50
2018-09-06T02:00:20.966Z,12.50
2018-09-06T02:02:49.507Z,12.50
2018-09-06T02:05:23.266Z,12.50
2018-09-06T02:07:51.865Z,12.50
2018-09-06T02:10:20.423Z,12.50
2018-09-06T02:12:49.009Z,12.50
2018-09-06T02:15:17.556Z,12.50
2018-09-06T02:17:46.089Z,12.40
2018-09-06T02:20:14.643Z,12.40
2018-09-06T02:22:43.248Z,12.40
2018-09-06T02:25:11.882Z,12.40
2018-09-06T02:27:40.492Z,12.40
2018-09-06T02:30:09.038Z,12.30
2018-09-06T02:32:37.621Z,12.30
2018-09-06T02:35:06.232Z,12.30
2018-09-06T02:37:34.792Z,12.30
2018-09-06T02:40:03.500Z,12.30
2018-09-06T02:42:32.058Z,12.30
2018-09-06T02:45:00.743Z,12.30
2018-09-06T02:47:29.468Z,12.30
2018-09-06T02:50:03.263Z,12.30
2018-09-06T02:52:31.795Z,12.30
2018-09-06T02:55:00.323Z,12.30
2018-09-06T02:57:28.866Z,12.30
2018-09-06T02:59:57.437Z,12.40
2018-09-06T03:02:26.022Z,12.30
2018-09-06T03:04:54.580Z,12.30
2018-09-06T03:07:23.136Z,12.30
2018-09-06T03:09:51.674Z,12.30
2018-09-06T03:12:20.271Z,12.30
2018-09-06T03:14:48.877Z,12.30
2018-09-06T03:17:17.481Z,12.30
2018-09-06T03:19:46.066Z,12.30
2018-09-06T03:22:14.609Z,12.30
2018-09-06T03:24:43.153Z,12.20
2018-09-06T03:27:11.680Z,12.10
2018-09-06T03:29:40.235Z,12.10
2018-09-06T03:32:08.804Z,12.00
2018-09-06T03:34:37.365Z,12.00
2018-09-06T03:37:05.943Z,12.00
2018-09-06T03:39:34.539Z,12.00
2018-09-06T03:42:03.136Z,11.90
2018-09-06T03:44:31.792Z,11.90
2018-09-06T03:47:00.389Z,11.90
2018-09-06T03:49:28.949Z,12.00
2018-09-06T03:51:57.635Z,11.90
2018-09-06T03:54:26.204Z,11.90
2018-09-06T03:56:54.748Z,12.00
2018-09-06T03:59:23.328Z,12.00
2018-09-06T04:01:51.924Z,12.00
2018-09-06T04:04:20.493Z,11.90
2018-09-06T04:06:49.039Z,11.90
2018-09-06T04:09:17.632Z,11.90
2018-09-06T04:11:46.179Z,11.90
2018-09-06T04:14:14.718Z,11.90
2018-09-06T04:16:43.281Z,11.90
2018-09-06T04:19:11.864Z,12.00
2018-09-06T04:21:40.841Z,12.00
2018-09-06T04:24:09.570Z,12.00
2018-09-06T04:26:38.133Z,12.10
2018-09-06T04:29:06.663Z,12.10
2018-09-06T04:31:35.227Z,12.10
2018-09-06T04:34:03.783Z,12.20
2018-09-06T04:36:32.323Z,12.30
2018-09-06T04:39:00.880Z,12.30
2018-09-06T04:41:29.467Z,12.30
2018-09-06T04:43:58.071Z,12.40
2018-09-06T04:46:26.638Z,12.40
2018-09-06T04:48:55.184Z,12.40
2018-09-06T04:51:23.823Z,12.40
2018-09-06T04:53:52.380Z,12.50
2018-09-06T04:56:20.936Z,12.50
2018-09-06T04:58:49.561Z,12.60
2018-09-06T05:01:18.151Z,12.60
2018-09-06T05:03:46.697Z,12.70
2018-09-06T05:06:15.565Z,12.80
2018-09-06T05:08:44.121Z,12.80
2018-09-06T05:11:12.690Z,12.90
2018-09-06T05:13:41.247Z,13.00
2018-09-06T05:16:09.783Z,13.00
2018-09-06T05:18:38.381Z,13.10
2018-09-06T05:21:06.979Z,13.20
2018-09-06T05:23:35.507Z,13.20
2018-09-06T05:26:04.065Z,13.30
2018-09-06T05:28:32.619Z,13.30
2018-09-06T05:31:01.216Z,13.40
2018-09-06T05:33:29.778Z,13.50
2018-09-06T05:35:58.359Z,13.60
2018-09-06T05:38:26.976Z,13.60
2018-09-06T05:40:55.551Z,13.70
2018-09-06T05:43:24.123Z,13.70
2018-09-06T05:45:52.733Z,13.80
2018-09-06T05:48:21.302Z,13.80
2018-09-06T05:50:49.896Z,13.90
2018-09-06T05:53:18.501Z,14.00
2018-09-06T05:55:47.073Z,14.10
2018-09-06T05:58:15.653Z,14.10
2018-09-06T06:00:46.838Z,14.20
2018-09-06T06:03:15.476Z,14.30
2018-09-06T06:05:44.089Z,14.40
2018-09-06T06:08:23.910Z,14.50
2018-09-06T06:10:52.566Z,14.60
2018-09-06T06:13:21.209Z,14.80
2018-09-06T06:15:49.776Z,14.90
2018-09-06T06:18:18.404Z,15.00
2018-09-06T06:20:46.955Z,15.20
2018-09-06T06:23:15.524Z,15.30
2018-09-06T06:25:44.099Z,15.50
2018-09-06T06:28:12.657Z,15.60
2018-09-06T06:30:41.181Z,15.80
2018-09-06T06:33:09.741Z,15.90
2018-09-06T06:35:38.402Z,16.10
2018-09-06T06:38:06.966Z,16.20
2018-09-06T06:40:35.541Z,16.40
2018-09-06T06:43:04.073Z,16.50
2018-09-06T06:45:32.635Z,16.70
2018-09-06T06:48:03.890Z,16.80
2018-09-06T06:50:32.805Z,17.00
2018-09-06T06:53:01.443Z,17.10
2018-09-06T06:55:30.039Z,17.30
2018-09-06T06:57:58.608Z,17.50
2018-09-06T07:00:27.206Z,17.60
2018-09-06T07:02:55.775Z,17.70
2018-09-06T07:05:24.328Z,17.90
2018-09-06T07:07:52.876Z,18.10
2018-09-06T07:10:21.439Z,18.20
2018-09-06T07:12:50.083Z,18.40
2018-09-06T07:15:18.657Z,18.60
2018-09-06T07:17:47.200Z,18.70
2018-09-06T07:20:15.802Z,18.90
2018-09-06T07:22:44.348Z,19.00
2018-09-06T07:25:12.969Z,19.20
2018-09-06T07:27:41.518Z,19.30
2018-09-06T07:30:10.107Z,19.40
2018-09-06T07:32:38.703Z,19.50
2018-09-06T07:35:07.421Z,19.50
2018-09-06T07:37:36.012Z,19.60
2018-09-06T07:40:04.669Z,19.70
2018-09-06T07:42:33.216Z,19.70
2018-09-06T07:45:01.833Z,19.70
2018-09-06T07:47:30.388Z,19.90
2018-09-06T07:49:59.251Z,19.90
2018-09-06T07:52:27.957Z,20.00
2018-09-06T07:54:56.460Z,20.10
2018-09-06T07:57:25.057Z,20.20
2018-09-06T07:59:53.725Z,20.30
2018-09-06T08:02:22.253Z,20.40
2018-09-06T08:04:50.793Z,20.40
2018-09-06T08:07:19.341Z,20.60
2018-09-06T08:09:47.903Z,20.70
2018-09-06T08:12:16.544Z,20.80
2018-09-06T08:14:45.176Z,20.80
2018-09-06T08:17:13.778Z,20.90
2018-09-06T08:19:42.352Z,21.00
2018-09-06T08:22:10.909Z,21.10
2018-09-06T08:24:39.495Z,21.20
2018-09-06T08:27:08.230Z,21.10
2018-09-06T08:29:36.772Z,21.20
2018-09-06T08:32:05.336Z,21.30
2018-09-06T08:34:34.407Z,21.40
2018-09-06T08:37:02.998Z,21.50
2018-09-06T08:39:31.540Z,21.60
2018-09-06T08:42:00.084Z,21.60
2018-09-06T08:44:28.729Z,21.70
2018-09-06T08:46:57.312Z,21.90
2018-09-06T08:49:25.870Z,21.90
2018-09-06T08:51:54.429Z,22.00
2018-09-06T08:54:22.988Z,22.20
2018-09-06T08:56:51.590Z,22.40
2018-09-06T08:59:20.387Z,22.60
2018-09-06T09:01:48.953Z,22.70
2018-09-06T09:04:17.551Z,22.90
2018-09-06T09:06:46.104Z,23.00
2018-09-06T09:09:15.534Z,23.20
2018-09-06T09:11:44.214Z,23.20
2018-09-06T09:14:12.781Z,23.30
2018-09-06T09:16:41.473Z,23.40
2018-09-06T09:19:10.091Z,23.40
2018-09-06T09:21:38.747Z,23.40
2018-09-06T09:24:07.335Z,23.50
2018-09-06T09:26:36.659Z,23.50
2018-09-06T09:29:05.296Z,23.70
2018-09-06T09:31:33.836Z,23.90
2018-09-06T09:34:02.447Z,24.10
2018-09-06T09:36:31.064Z,24.10
2018-09-06T09:38:59.620Z,24.10
2018-09-06T09:41:28.145Z,24.20
2018-09-06T09:43:56.756Z,24.30
2018-09-06T09:48:52.992Z,24.60
2018-09-06T09:51:21.581Z,24.70
2018-09-06T09:53:50.195Z,24.80
2018-09-06T09:56:18.737Z,24.90
2018-09-06T09:58:47.356Z,24.90
2018-09-06T10:01:15.881Z,24.90
2018-09-06T10:08:24.940Z,25.10
2018-09-06T10:10:53.571Z,24.80
2018-09-06T10:13:22.189Z,24.40
2018-09-06T10:15:50.725Z,24.50
2018-09-06T10:18:19.409Z,24.40
2018-09-06T10:20:47.944Z,24.70
2018-09-06T10:23:16.543Z,24.90
2018-09-06T10:25:45.093Z,24.70
2018-09-06T10:28:13.779Z,24.60
2018-09-06T10:30:42.402Z,24.60
2018-09-06T10:33:11.030Z,24.70
2018-09-06T10:35:39.620Z,24.70
2018-09-06T10:38:08.164Z,24.80
2018-09-06T10:40:36.872Z,24.70
2018-09-06T10:43:07.682Z,24.80
2018-09-06T10:45:36.253Z,25.00
2018-09-06T10:48:04.871Z,25.10
2018-09-06T10:50:33.449Z,25.00
2018-09-06T10:53:01.969Z,25.00
2018-09-06T10:55:30.480Z,25.30
2018-09-06T10:57:59.067Z,25.60
2018-09-06T11:00:29.186Z,25.90
2018-09-06T11:02:58.604Z,26.00
2018-09-06T11:05:27.191Z,26.00
2018-09-06T11:07:55.848Z,25.90
2018-09-06T11:10:24.459Z,25.80
2018-09-06T11:12:53.006Z,26.00
2018-09-06T11:15:21.597Z,26.00
2018-09-06T11:17:50.129Z,26.00
2018-09-06T11:20:18.715Z,26.10
2018-09-06T11:22:47.420Z,26.20
2018-09-06T11:25:15.888Z,26.40
2018-09-06T11:27:44.504Z,26.50
2018-09-06T11:30:13.044Z,26.60
2018-09-06T11:32:41.569Z,26.60
2018-09-06T11:35:10.091Z,26.60
2018-09-06T11:37:38.624Z,26.70
2018-09-06T11:40:07.328Z,26.90
2018-09-06T11:42:35.843Z,27.00
2018-09-06T11:45:04.622Z,27.10
2018-09-06T11:47:33.223Z,26.90
2018-09-06T11:50:01.764Z,26.90
2018-09-06T11:52:30.328Z,27.00
2018-09-06T11:54:58.895Z,27.20
2018-09-06T11:57:27.515Z,27.30
2018-09-06T11:59:56.076Z,27.30
2018-09-06T12:02:24.703Z,27.10
2018-09-06T12:04:53.268Z,27.20
2018-09-06T12:07:21.870Z,27.50
2018-09-06T12:12:18.711Z,27.80
2018-09-06T12:14:47.339Z,27.90
2018-09-06T12:17:15.918Z,28.00
2018-09-06T12:19:44.597Z,27.80
2018-09-06T12:22:13.220Z,27.70
2018-09-06T12:24:42.283Z,27.80
2018-09-06T12:27:11.271Z,27.80
2018-09-06T12:29:39.864Z,27.70
2018-09-06T12:32:08.778Z,27.70
2018-09-06T12:34:38.816Z,27.80
2018-09-06T12:37:12.889Z,28.00
2018-09-06T12:39:43.119Z,28.00
2018-09-06T12:42:11.978Z,27.90
2018-09-06T12:44:40.886Z,27.80
2018-09-06T12:47:09.595Z,27.70
2018-09-06T12:49:38.261Z,27.50
2018-09-06T12:52:06.871Z,27.40
2018-09-06T12:54:36.730Z,27.50
2018-09-06T12:57:05.430Z,27.80
2018-09-06T12:59:33.994Z,27.80
2018-09-06T13:02:02.538Z,27.60
2018-09-06T13:04:31.100Z,27.70
2018-09-06T13:06:59.626Z,27.50
2018-09-06T13:09:28.186Z,27.30
2018-09-06T13:11:57.784Z,27.30
2018-09-06T13:14:26.532Z,27.50
2018-09-06T13:16:55.696Z,27.50
2018-09-06T13:19:24.302Z,27.30
2018-09-06T13:21:53.025Z,27.30
2018-09-06T13:24:21.662Z,27.20
2018-09-06T13:26:50.249Z,27.10
2018-09-06T13:29:18.862Z,26.90
2018-09-06T13:31:47.502Z,27.00
2018-09-06T13:34:16.048Z,27.00
2018-09-06T13:36:44.608Z,27.00
2018-09-06T13:39:13.334Z,26.70
2018-09-06T13:41:42.282Z,26.60
2018-09-06T13:44:11.539Z,26.60
2018-09-06T13:46:40.141Z,26.70
2018-09-06T13:49:08.713Z,26.80
2018-09-06T13:51:37.321Z,26.70
2018-09-06T13:54:05.909Z,26.60
2018-09-06T13:56:34.591Z,26.70
2018-09-06T13:59:03.295Z,26.70
2018-09-06T14:01:31.870Z,26.80
2018-09-06T14:04:00.580Z,26.70
2018-09-06T14:06:29.246Z,26.70
2018-09-06T14:08:58.548Z,26.70
2018-09-06T14:11:27.093Z,26.60
2018-09-06T14:13:55.726Z,26.70
2018-09-06T14:16:24.363Z,26.60
2018-09-06T14:18:52.970Z,26.50
2018-09-06T14:21:21.583Z,26.50
2018-09-06T14:23:50.189Z,26.60
2018-09-06T14:26:18.737Z,26.50
2018-09-06T14:28:47.375Z,26.50
2018-09-06T14:31:15.934Z,26.40
2018-09-06T14:33:44.529Z,26.40
2018-09-06T14:36:13.103Z,26.40
2018-09-06T14:38:41.788Z,26.40
2018-09-06T14:41:10.364Z,26.40
2018-09-06T14:43:38.921Z,26.40
2018-09-06T14:46:07.525Z,26.40
2018-09-06T14:48:36.085Z,26.30
2018-09-06T14:51:04.704Z,26.20
2018-09-06T14:53:33.307Z,26.20
2018-09-06T14:56:01.902Z,26.20
2018-09-06T14:58:30.464Z,26.30
2018-09-06T15:00:59.030Z,26.50
2018-09-06T15:03:27.561Z,26.50
2018-09-06T15:05:56.132Z,26.40
2018-09-06T15:08:24.679Z,26.40
2018-09-06T15:10:53.227Z,26.20
2018-09-06T15:13:21.917Z,26.10
2018-09-06T15:15:50.482Z,26.10
2018-09-06T15:18:19.078Z,26.00
2018-09-06T15:20:47.626Z,26.00
2018-09-06T15:23:16.133Z,25.90
2018-09-06T15:25:44.746Z,25.80
2018-09-06T15:28:13.429Z,25.80
2018-09-06T15:30:42.096Z,25.90
2018-09-06T15:33:10.700Z,25.90
2018-09-06T15:35:39.266Z,25.80
2018-09-06T15:38:07.929Z,25.80
2018-09-06T15:40:36.460Z,25.80
2018-09-06T15:43:05.074Z,25.70
2018-09-06T15:45:33.682Z,25.60
2018-09-06T15:48:02.215Z,25.60
2018-09-06T15:50:30.768Z,25.50
2018-09-06T15:52:59.447Z,25.50
2018-09-06T15:55:27.959Z,25.50
2018-09-06T15:57:56.540Z,25.50
2018-09-06T16:00:25.148Z,25.40
2018-09-06T16:02:53.840Z,25.30
2018-09-06T16:05:22.410Z,25.20
2018-09-06T16:07:52.044Z,25.10
2018-09-06T16:10:21.159Z,25.00
2018-09-06T16:12:49.760Z,24.80
2018-09-06T16:15:18.547Z,24.70
2018-09-06T16:17:47.134Z,24.60
2018-09-06T16:20:15.717Z,24.50
2018-09-06T16:22:46.962Z,24.40
2018-09-06T16:25:15.979Z,24.30
2018-09-06T16:27:46.204Z,24.20
2018-09-06T16:30:15.832Z,24.10
2018-09-06T16:32:44.449Z,24.10
2018-09-06T16:35:13.225Z,24.00
2018-09-06T16:37:44.090Z,23.90
2018-09-06T16:40:12.668Z,23.80
2018-09-06T16:45:20.762Z,23.60
2018-09-06T16:47:49.381Z,23.50
2018-09-06T16:50:17.923Z,23.40
2018-09-06T16:52:46.547Z,23.30
2018-09-06T16:55:15.180Z,23.10
2018-09-06T16:57:43.777Z,23.00
2018-09-06T17:00:12.390Z,22.90
2018-09-06T17:02:41.019Z,22.70
2018-09-06T17:05:09.965Z,22.60
2018-09-06T17:07:38.583Z,22.50
2018-09-06T17:10:07.319Z,22.40
2018-09-06T17:12:35.994Z,22.30
2018-09-06T17:15:04.730Z,22.20
2018-09-06T17:17:33.252Z,22.10
2018-09-06T17:20:01.810Z,22.00
2018-09-06T17:22:30.354Z,21.90
2018-09-06T17:24:59.004Z,21.80
2018-09-06T17:27:27.688Z,21.70
2018-09-06T17:29:56.346Z,21.60
2018-09-06T17:32:25.339Z,21.40
2018-09-06T17:34:53.921Z,21.40
2018-09-06T17:37:22.576Z,21.30
2018-09-06T17:39:52.227Z,21.30
2018-09-06T17:42:20.992Z,21.20
2018-09-06T17:44:49.579Z,21.10
2018-09-06T17:47:18.146Z,21.00
2018-09-06T17:49:46.711Z,21.00
2018-09-06T17:52:15.342Z,21.00
2018-09-06T17:54:43.954Z,20.90
2018-09-06T17:57:12.550Z,20.70
2018-09-06T17:59:41.776Z,20.60
2018-09-06T18:02:10.332Z,20.50
2018-09-06T18:04:39.026Z,20.40
2018-09-06T18:07:07.654Z,20.40
2018-09-06T18:09:36.237Z,20.40
2018-09-06T18:12:08.945Z,20.30
2018-09-06T18:14:37.587Z,20.10
2018-09-06T18:17:06.230Z,20.00
2018-09-06T18:19:34.813Z,19.90
2018-09-06T18:22:03.419Z,20.00
2018-09-06T18:24:32.042Z,19.90
2018-09-06T18:27:00.697Z,19.90
2018-09-06T18:29:29.332Z,19.80
2018-09-06T18:31:57.972Z,19.80
2018-09-06T18:34:26.503Z,19.80
2018-09-06T18:36:55.147Z,19.80
2018-09-06T18:39:23.705Z,19.80
2018-09-06T18:41:52.252Z,19.70
2018-09-06T18:44:20.849Z,19.70
2018-09-06T18:46:49.442Z,19.60
2018-09-06T18:49:18.029Z,19.50
2018-09-06T18:51:47.366Z,19.50
2018-09-06T18:54:15.945Z,19.40
2018-09-06T18:56:45.230Z,19.50
2018-09-06T18:59:13.808Z,19.40
2018-09-06T19:01:42.384Z,19.30
2018-09-06T19:04:11.732Z,19.30
2018-09-06T19:06:40.285Z,19.30
2018-09-06T19:09:10.428Z,19.20
2018-09-06T19:11:38.964Z,19.20
2018-09-06T19:14:07.543Z,19.20
2018-09-06T19:16:36.272Z,19.20
2018-09-06T19:19:05.341Z,19.30
2018-09-06T19:21:33.934Z,19.30
2018-09-06T19:24:02.592Z,19.30
2018-09-06T19:26:31.156Z,19.40
2018-09-06T19:28:59.676Z,19.60
2018-09-06T19:31:29.345Z,19.60
2018-09-06T19:33:58.028Z,19.50
2018-09-06T19:36:26.758Z,19.50
2018-09-06T19:38:56.413Z,19.50
2018-09-06T19:41:24.969Z,19.40
2018-09-06T19:43:53.511Z,19.40
2018-09-06T19:46:22.133Z,19.30
2018-09-06T19:48:50.713Z,19.30
2018-09-06T19:51:19.275Z,19.30
2018-09-06T19:53:47.827Z,19.30
2018-09-06T19:56:16.419Z,19.20
2018-09-06T19:58:44.973Z,19.20
2018-09-06T20:01:13.522Z,19.10
2018-09-06T20:03:42.089Z,19.10
2018-09-06T20:06:10.849Z,19.00
2018-09-06T20:08:39.394Z,18.80
2018-09-06T20:11:08.084Z,18.70
2018-09-06T20:13:36.658Z,18.60
2018-09-06T20:16:05.282Z,18.50
2018-09-06T20:18:33.870Z,18.40
2018-09-06T20:21:02.443Z,18.40
2018-09-06T20:23:30.994Z,18.30
2018-09-06T20:25:59.631Z,18.30
2018-09-06T20:28:28.214Z,18.20
2018-09-06T20:30:56.790Z,18.10
2018-09-06T20:33:25.333Z,18.10
2018-09-06T20:35:53.891Z,18.00
2018-09-06T20:38:22.456Z,17.90
2018-09-06T20:40:51.062Z,17.90
2018-09-06T20:43:19.691Z,17.80
2018-09-06T20:45:48.363Z,17.70
2018-09-06T20:48:16.982Z,17.60
2018-09-06T20:50:45.609Z,17.60
2018-09-06T20:53:14.244Z,17.60
2018-09-06T20:55:42.808Z,17.50
2018-09-06T20:58:11.424Z,17.40
2018-09-06T21:00:40.120Z,17.30
2018-09-06T21:03:08.785Z,17.20
2018-09-06T21:05:37.396Z,17.10
2018-09-06T21:08:05.955Z,17.00
2018-09-06T21:10:34.516Z,16.90
2018-09-06T21:13:03.094Z,16.80
2018-09-06T21:15:31.721Z,16.70
2018-09-06T21:18:00.435Z,16.60
2018-09-06T21:20:29.052Z,16.50
2018-09-06T21:22:57.729Z,16.50
2018-09-06T21:25:26.302Z,16.40
2018-09-06T21:27:54.940Z,16.40
2018-09-06T21:30:23.639Z,16.40
2018-09-06T21:32:52.184Z,16.40
2018-09-06T21:35:20.830Z,16.40
2018-09-06T21:37:49.446Z,16.30
2018-09-06T21:40:17.988Z,16.30
2018-09-06T21:42:46.612Z,16.30
2018-09-06T21:45:15.170Z,16.20
2018-09-06T21:47:43.751Z,16.10
2018-09-06T21:50:12.378Z,16.00
2018-09-06T21:52:42.526Z,16.00
2018-09-06T21:55:11.119Z,16.00
2018-09-06T21:57:39.727Z,15.80
2018-09-06T22:00:08.401Z,15.80
2018-09-06T22:02:42.289Z,15.70
2018-09-06T22:05:10.897Z,15.70
2018-09-06T22:07:39.509Z,15.70
2018-09-06T22:10:08.162Z,15.70
2018-09-06T22:12:36.746Z,15.60
2018-09-06T22:15:05.406Z,15.60
2018-09-06T22:17:34.019Z,15.60
2018-09-06T22:20:02.661Z,15.70
2018-09-06T22:22:31.247Z,15.70
2018-09-06T22:24:59.817Z,15.60
2018-09-06T22:27:28.372Z,15.70
2018-09-06T22:29:56.991Z,15.90
2018-09-06T22:32:25.638Z,15.90
2018-09-06T22:34:54.203Z,16.00
2018-09-06T22:37:22.775Z,16.10
2018-09-06T22:39:51.390Z,16.20
2018-09-06T22:42:20.208Z,16.10
2018-09-06T22:44:48.849Z,16.10
2018-09-06T22:47:17.467Z,16.20
2018-09-06T22:49:46.086Z,16.20
2018-09-06T22:52:14.677Z,16.30
2018-09-06T22:54:43.334Z,16.30
2018-09-06T22:57:11.962Z,16.40
2018-09-06T22:59:40.559Z,16.40
2018-09-06T23:02:09.121Z,16.40
2018-09-06T23:04:37.693Z,16.40
2018-09-06T23:07:06.386Z,16.30
2018-09-06T23:09:35.047Z,16.30
2018-09-06T23:12:03.618Z,16.30
2018-09-06T23:14:32.194Z,16.30
2018-09-06T23:17:00.751Z,16.40
2018-09-06T23:19:29.314Z,16.40
2018-09-06T23:21:57.892Z,16.50
2018-09-06T23:24:26.499Z,16.60
2018-09-06T23:26:55.101Z,16.60
2018-09-06T23:29:23.699Z,16.70
2018-09-06T23:31:52.275Z,16.70
2018-09-06T23:34:20.879Z,16.70
2018-09-06T23:36:49.437Z,16.70
2018-09-06T23:39:18.015Z,16.70
2018-09-06T23:41:46.557Z,16.70
2018-09-06T23:44:15.109Z,16.60
2018-09-06T23:46:43.680Z,16.60
2018-09-06T23:49:12.227Z,16.60
2018-09-06T23:51:40.783Z,16.50
2018-09-06T23:54:11.352Z,16.50
2018-09-06T23:56:39.940Z,16.40
2018-09-06T23:59:08.509Z,16.50
